Aviation Digital Data Service (ADDS)

Output produced by METARs form (0517 UTC 21 January 2019)
found at http://www.aviationweather.gov/metar/data/
 
METAR text: RJCH 210500Z 28013KT 6000 -SHSN FEW004 SCT012 BKN020 M06/M09 Q1004
Conditions at: RJCH (HAKODATE AIRPORT, JP) observed 0500 UTC 21 January 2019
Temperature: -6.0°C (21°F)
Dewpoint: -9.0°C (16°F) [RH = 79%]
Pressure (altimeter): 29.65 inches Hg (1004.0 mb)
Winds: from the W (280 degrees) at 15 MPH (13 knots; 6.7 m/s)
Visibility: 4 miles ( 6 km)
Ceiling: 2000 feet AGL
Clouds: few clouds at 400 feet AGL
scattered clouds at 1200 feet AGL
broken clouds at 2000 feet AGL
Weather: -SHSN  (light snow showers)

METAR text: RJCH 210450Z 30016KT 3200 R12/1300VP2000U -SHSN FEW006 SCT010 BKN025 M06/M09 Q1004 RMK 1ST006 3ST010 6CU025 A2967
Conditions at: RJCH (HAKODATE AIRPORT, JP) observed 0450 UTC 21 January 2019
Temperature: -6.0°C (21°F)
Dewpoint: -9.0°C (16°F) [RH = 79%]
Pressure (altimeter): 29.65 inches Hg (1004.0 mb)
Winds: from the WNW (300 degrees) at 18 MPH (16 knots; 8.2 m/s)
Visibility: 1.99 miles (3.20 km)
Ceiling: 2500 feet AGL
Clouds: few clouds at 600 feet AGL
scattered clouds at 1000 feet AGL
broken clouds at 2500 feet AGL
Weather: -SHSN  (light snow showers)

METAR text: RJCH 210448Z 30016KT 2400 R12/1300VP2000D -SHSN FEW006 SCT010 BKN025 M06/M09 Q1004 RMK 1ST006 4ST010 6CU025 A2967
Conditions at: RJCH (HAKODATE AIRPORT, JP) observed 0448 UTC 21 January 2019
Temperature: -6.0°C (21°F)
Dewpoint: -9.0°C (16°F) [RH = 79%]
Pressure (altimeter): 29.65 inches Hg (1004.0 mb)
Winds: from the WNW (300 degrees) at 18 MPH (16 knots; 8.2 m/s)
Visibility: 1.49 miles (2.40 km)
Ceiling: 2500 feet AGL
Clouds: few clouds at 600 feet AGL
scattered clouds at 1000 feet AGL
broken clouds at 2500 feet AGL
Weather: -SHSN  (light snow showers)

METAR text: RJCH 210440Z 31014KT 2300 -SHSN FEW004 BKN010 BKN020 M05/M10 Q1004 RMK 1ST004 5ST010 7CU020 A2966
Conditions at: RJCH (HAKODATE AIRPORT, JP) observed 0440 UTC 21 January 2019
Temperature: -5.0°C (23°F)
Dewpoint: -10.0°C (14°F) [RH = 68%]
Pressure (altimeter): 29.65 inches Hg (1004.0 mb)
Winds: from the NW (310 degrees) at 16 MPH (14 knots; 7.2 m/s)
Visibility: 1.43 miles (2.30 km)
Ceiling: 1000 feet AGL
Clouds: few clouds at 400 feet AGL
broken clouds at 1000 feet AGL
broken clouds at 2000 feet AGL
Weather: -SHSN  (light snow showers)

METAR text: RJCH 210437Z 29013KT 270V340 4900 -SHSN FEW005 BKN012 BKN025 M05/M10 Q1004 RMK 1ST005 5ST012 7CU025 A2966
Conditions at: RJCH (HAKODATE AIRPORT, JP) observed 0437 UTC 21 January 2019
Temperature: -5.0°C (23°F)
Dewpoint: -10.0°C (14°F) [RH = 68%]
Pressure (altimeter): 29.65 inches Hg (1004.0 mb)
Winds: from the WNW (290 degrees) at 15 MPH (13 knots; 6.7 m/s)
Visibility: 3 miles ( 5 km)
Ceiling: 1200 feet AGL
Clouds: few clouds at 500 feet AGL
broken clouds at 1200 feet AGL
broken clouds at 2500 feet AGL
Weather: -SHSN  (light snow showers)

METAR text: RJCH 210425Z 27016G26KT 9999 -SHSN FEW010 SCT025 M05/M09 Q1004 RMK 1ST010 3CU025 A2966
Conditions at: RJCH (HAKODATE AIRPORT, JP) observed 0425 UTC 21 January 2019
Temperature: -5.0°C (23°F)
Dewpoint: -9.0°C (16°F) [RH = 73%]
Pressure (altimeter): 29.65 inches Hg (1004.0 mb)
Winds: from the W (270 degrees) at 18 MPH (16 knots; 8.2 m/s)
gusting to 30 MPH (26 knots; 13.4 m/s)
Visibility: 6 or more miles (10+ km)
Ceiling: at least 12,000 feet AGL
Clouds: few clouds at 1000 feet AGL
scattered clouds at 2500 feet AGL
Weather: -SHSN  (light snow showers)

METAR text: RJCH 210400Z 29014KT 9000 R12/2000N -SHSN FEW010 SCT015 M05/M09 Q1004
Conditions at: RJCH (HAKODATE AIRPORT, JP) observed 0400 UTC 21 January 2019
Temperature: -5.0°C (23°F)
Dewpoint: -9.0°C (16°F) [RH = 73%]
Pressure (altimeter): 29.65 inches Hg (1004.0 mb)
Winds: from the WNW (290 degrees) at 16 MPH (14 knots; 7.2 m/s)
Visibility: 6 miles ( 9 km)
Ceiling: at least 12,000 feet AGL
Clouds: few clouds at 1000 feet AGL
scattered clouds at 1500 feet AGL
Weather: -SHSN  (light snow showers)

METAR text: RJCH 210349Z 28018KT 1500 R12/0550VP2000D -SHSN BLSN FEW003 SCT005 BKN010 M06/M08 Q1004 RMK 1ST003 4ST005 5ST010 A2966
Conditions at: RJCH (HAKODATE AIRPORT, JP) observed 0349 UTC 21 January 2019
Temperature: -6.0°C (21°F)
Dewpoint: -8.0°C (18°F) [RH = 86%]
Pressure (altimeter): 29.65 inches Hg (1004.0 mb)
Winds: from the W (280 degrees) at 21 MPH (18 knots; 9.3 m/s)
Visibility: 0.93 miles (1.50 km)
Ceiling: 1000 feet AGL
Clouds: few clouds at 300 feet AGL
scattered clouds at 500 feet AGL
broken clouds at 1000 feet AGL
Weather: BLSN -SHSN  (blowing snow, light snow showers)

METAR text: RJCH 210345Z 27020KT 0700 R12/0600VP2000N SHSN BLSN VV005 M06/M08 Q1004 RMK A2966
Conditions at: RJCH (HAKODATE AIRPORT, JP) observed 0345 UTC 21 January 2019
Temperature: -6.0°C (21°F)
Dewpoint: -8.0°C (18°F) [RH = 86%]
Pressure (altimeter): 29.65 inches Hg (1004.0 mb)
Winds: from the W (270 degrees) at 23 MPH (20 knots; 10.3 m/s)
Visibility: 0.43 miles (0.69 km)
Ceiling: indefinite ceiling with vertical visibility of 500 feet AGL
Clouds: obscured sky
Weather: SHSN BLSN  (snow showers, blowing snow)

METAR text: RJCH 210342Z 27019KT 1400 R12/0800VP2000D -SHSN BLSN FEW003 BKN006 M05/M08 Q1004 RMK 1ST003 5ST006 A2966
Conditions at: RJCH (HAKODATE AIRPORT, JP) observed 0342 UTC 21 January 2019
Temperature: -5.0°C (23°F)
Dewpoint: -8.0°C (18°F) [RH = 79%]
Pressure (altimeter): 29.65 inches Hg (1004.0 mb)
Winds: from the W (270 degrees) at 22 MPH (19 knots; 9.8 m/s)
Visibility: 0.87 miles (1.40 km)
Ceiling: 600 feet AGL
Clouds: few clouds at 300 feet AGL
broken clouds at 600 feet AGL
Weather: BLSN -SHSN  (blowing snow, light snow showers)

METAR text: RJCH 210335Z 27019KT 2300 R12/1100VP2000N -SHSN BLSN FEW004 BKN008 M06/M08 Q1004 RMK 1ST004 5ST008 A2966
Conditions at: RJCH (HAKODATE AIRPORT, JP) observed 0335 UTC 21 January 2019
Temperature: -6.0°C (21°F)
Dewpoint: -8.0°C (18°F) [RH = 86%]
Pressure (altimeter): 29.65 inches Hg (1004.0 mb)
Winds: from the W (270 degrees) at 22 MPH (19 knots; 9.8 m/s)
Visibility: 1.43 miles (2.30 km)
Ceiling: 800 feet AGL
Clouds: few clouds at 400 feet AGL
broken clouds at 800 feet AGL
Weather: -SHSN BLSN  (light snow showers, blowing snow)

METAR text: RJCH 210333Z 27019KT 3100 R12/1100VP2000U -SHSN BLSN FEW004 BKN010 BKN020 M06/M08 Q1004 RMK 1ST004 5ST010 6CU020 A2966
Conditions at: RJCH (HAKODATE AIRPORT, JP) observed 0333 UTC 21 January 2019
Temperature: -6.0°C (21°F)
Dewpoint: -8.0°C (18°F) [RH = 86%]
Pressure (altimeter): 29.65 inches Hg (1004.0 mb)
Winds: from the W (270 degrees) at 22 MPH (19 knots; 9.8 m/s)
Visibility: 1.93 miles (3.11 km)
Ceiling: 1000 feet AGL
Clouds: few clouds at 400 feet AGL
broken clouds at 1000 feet AGL
broken clouds at 2000 feet AGL
Weather: BLSN -SHSN  (blowing snow, light snow showers)

METAR text: RJCH 210322Z 28016KT 4900 -SHSN BLSN FEW004 BKN012 BKN025 M05/M09 Q1004 RMK 1ST004 5ST012 6CU025 A2966
Conditions at: RJCH (HAKODATE AIRPORT, JP) observed 0322 UTC 21 January 2019
Temperature: -5.0°C (23°F)
Dewpoint: -9.0°C (16°F) [RH = 73%]
Pressure (altimeter): 29.65 inches Hg (1004.0 mb)
Winds: from the W (280 degrees) at 18 MPH (16 knots; 8.2 m/s)
Visibility: 3 miles ( 5 km)
Ceiling: 1200 feet AGL
Clouds: few clouds at 400 feet AGL
broken clouds at 1200 feet AGL
broken clouds at 2500 feet AGL
Weather: -SHSN BLSN  (light snow showers, blowing snow)

METAR text: RJCH 210303Z 29018G28KT 5000 R12/0900VP2000U -SHSN BLSN FEW004 BKN012 M05/M08 Q1004 RMK 1ST004 5ST012 A2966
Conditions at: RJCH (HAKODATE AIRPORT, JP) observed 0303 UTC 21 January 2019
Temperature: -5.0°C (23°F)
Dewpoint: -8.0°C (18°F) [RH = 79%]
Pressure (altimeter): 29.65 inches Hg (1004.0 mb)
Winds: from the WNW (290 degrees) at 21 MPH (18 knots; 9.3 m/s)
gusting to 32 MPH (28 knots; 14.4 m/s)
Visibility: 3 miles ( 5 km)
Ceiling: 1200 feet AGL
Clouds: few clouds at 400 feet AGL
broken clouds at 1200 feet AGL
Weather: BLSN -SHSN  (blowing snow, light snow showers)

METAR text: RJCH 210300Z 29018G28KT 3200 R12/0900VP2000U -SHSN BLSN FEW003 BKN010 BKN020 M05/M08 Q1004
Conditions at: RJCH (HAKODATE AIRPORT, JP) observed 0300 UTC 21 January 2019
Temperature: -5.0°C (23°F)
Dewpoint: -8.0°C (18°F) [RH = 79%]
Pressure (altimeter): 29.65 inches Hg (1004.0 mb)
Winds: from the WNW (290 degrees) at 21 MPH (18 knots; 9.3 m/s)
gusting to 32 MPH (28 knots; 14.4 m/s)
Visibility: 1.99 miles (3.20 km)
Ceiling: 1000 feet AGL
Clouds: few clouds at 300 feet AGL
broken clouds at 1000 feet AGL
broken clouds at 2000 feet AGL
Weather: BLSN -SHSN  (blowing snow, light snow showers)

METAR text: RJCH 210250Z 29019KT 1000 R12/0400V1300U -SHSN BLSN FEW003 BKN005 M06/M08 Q1004 RMK 1ST003 5ST005 A2966
Conditions at: RJCH (HAKODATE AIRPORT, JP) observed 0250 UTC 21 January 2019
Temperature: -6.0°C (21°F)
Dewpoint: -8.0°C (18°F) [RH = 86%]
Pressure (altimeter): 29.65 inches Hg (1004.0 mb)
Winds: from the WNW (290 degrees) at 22 MPH (19 knots; 9.8 m/s)
Visibility: 0.62 miles (1.00 km)
Ceiling: 500 feet AGL
Clouds: few clouds at 300 feet AGL
broken clouds at 500 feet AGL
Weather: BLSN -SHSN  (blowing snow, light snow showers)

METAR text: RJCH 210239Z 27021G31KT 0600 R12/0500V1600U SHSN BLSN VV004 M06/M08 Q1004 RMK A2966
Conditions at: RJCH (HAKODATE AIRPORT, JP) observed 0239 UTC 21 January 2019
Temperature: -6.0°C (21°F)
Dewpoint: -8.0°C (18°F) [RH = 86%]
Pressure (altimeter): 29.65 inches Hg (1004.0 mb)
Winds: from the W (270 degrees) at 24 MPH (21 knots; 10.8 m/s)
gusting to 36 MPH (31 knots; 15.9 m/s)
Visibility: 0.37 miles (0.60 km)
Ceiling: indefinite ceiling with vertical visibility of 400 feet AGL
Clouds: obscured sky
Weather: BLSN SHSN  (blowing snow, snow showers)

METAR text: RJCH 210238Z 27022KT 0700 R12/0500V1600U SHSN BLSN SCT002 BKN005 BKN012 M05/M08 Q1004 RMK 3ST002 5ST005 7ST012 A2966
Conditions at: RJCH (HAKODATE AIRPORT, JP) observed 0238 UTC 21 January 2019
Temperature: -5.0°C (23°F)
Dewpoint: -8.0°C (18°F) [RH = 79%]
Pressure (altimeter): 29.65 inches Hg (1004.0 mb)
Winds: from the W (270 degrees) at 25 MPH (22 knots; 11.3 m/s)
Visibility: 0.43 miles (0.69 km)
Ceiling: 500 feet AGL
Clouds: scattered clouds at 200 feet AGL
broken clouds at 500 feet AGL
broken clouds at 1200 feet AGL
Weather: BLSN SHSN  (blowing snow, snow showers)

METAR text: RJCH 210234Z 27024G35KT 0500 R12/0500V1200U SHSN BLSN SCT002 BKN004 BKN010 M05/M08 Q1004 RMK 3ST002 5ST004 7ST010 A2966
Conditions at: RJCH (HAKODATE AIRPORT, JP) observed 0234 UTC 21 January 2019
Temperature: -5.0°C (23°F)
Dewpoint: -8.0°C (18°F) [RH = 79%]
Pressure (altimeter): 29.65 inches Hg (1004.0 mb)
Winds: from the W (270 degrees) at 28 MPH (24 knots; 12.3 m/s)
gusting to 40 MPH (35 knots; 18.0 m/s)
Visibility: 0.31 miles (0.50 km)
Ceiling: 400 feet AGL
Clouds: scattered clouds at 200 feet AGL
broken clouds at 400 feet AGL
broken clouds at 1000 feet AGL
Weather: BLSN SHSN  (blowing snow, snow showers)

METAR text: RJCH 210219Z 28015G28KT 6000 -SHSN FEW003 SCT010 BKN025 M04/M10 Q1004 RMK 1ST003 4ST010 5CU025 A2966
Conditions at: RJCH (HAKODATE AIRPORT, JP) observed 0219 UTC 21 January 2019
Temperature: -4.0°C (25°F)
Dewpoint: -10.0°C (14°F) [RH = 63%]
Pressure (altimeter): 29.65 inches Hg (1004.0 mb)
Winds: from the W (280 degrees) at 17 MPH (15 knots; 7.7 m/s)
gusting to 32 MPH (28 knots; 14.4 m/s)
Visibility: 4 miles ( 6 km)
Ceiling: 2500 feet AGL
Clouds: few clouds at 300 feet AGL
scattered clouds at 1000 feet AGL
broken clouds at 2500 feet AGL
Weather: -SHSN  (light snow showers)

METAR text: RJCH 210200Z 31013KT 9999 -SHSN FEW003 SCT008 BKN025 M05/M10 Q1005
Conditions at: RJCH (HAKODATE AIRPORT, JP) observed 0200 UTC 21 January 2019
Temperature: -5.0°C (23°F)
Dewpoint: -10.0°C (14°F) [RH = 68%]
Pressure (altimeter): 29.68 inches Hg (1005.0 mb)
Winds: from the NW (310 degrees) at 15 MPH (13 knots; 6.7 m/s)
Visibility: 6 or more miles (10+ km)
Ceiling: 2500 feet AGL
Clouds: few clouds at 300 feet AGL
scattered clouds at 800 feet AGL
broken clouds at 2500 feet AGL
Weather: -SHSN  (light snow showers)

METAR text: RJCH 210132Z 31015KT 9999 -SHSN FEW004 SCT010 BKN020 M05/M09 Q1005 RMK 1ST004 4ST010 5CU020 A2968
Conditions at: RJCH (HAKODATE AIRPORT, JP) observed 0132 UTC 21 January 2019
Temperature: -5.0°C (23°F)
Dewpoint: -9.0°C (16°F) [RH = 73%]
Pressure (altimeter): 29.68 inches Hg (1005.0 mb)
Winds: from the NW (310 degrees) at 17 MPH (15 knots; 7.7 m/s)
Visibility: 6 or more miles (10+ km)
Ceiling: 2000 feet AGL
Clouds: few clouds at 400 feet AGL
scattered clouds at 1000 feet AGL
broken clouds at 2000 feet AGL
Weather: -SHSN  (light snow showers)

METAR text: RJCH 210121Z 31017KT 5000 R12/1600VP2000N -SHSN BLSN FEW003 SCT007 BKN025 M05/M10 Q1005 RMK 1ST003 4ST007 5CU025 A2969
Conditions at: RJCH (HAKODATE AIRPORT, JP) observed 0121 UTC 21 January 2019
Temperature: -5.0°C (23°F)
Dewpoint: -10.0°C (14°F) [RH = 68%]
Pressure (altimeter): 29.68 inches Hg (1005.0 mb)
Winds: from the NW (310 degrees) at 20 MPH (17 knots; 8.7 m/s)
Visibility: 3 miles ( 5 km)
Ceiling: 2500 feet AGL
Clouds: few clouds at 300 feet AGL
scattered clouds at 700 feet AGL
broken clouds at 2500 feet AGL
Weather: -SHSN BLSN  (light snow showers, blowing snow)

METAR text: RJCH 210104Z 29020KT 3200 R12/0400VP2000U -SHSN BLSN FEW003 SCT007 BKN020 M06/M08 Q1005 RMK 1ST003 4ST007 5CU020 A2969
Conditions at: RJCH (HAKODATE AIRPORT, JP) observed 0104 UTC 21 January 2019
Temperature: -6.0°C (21°F)
Dewpoint: -8.0°C (18°F) [RH = 86%]
Pressure (altimeter): 29.68 inches Hg (1005.0 mb)
Winds: from the WNW (290 degrees) at 23 MPH (20 knots; 10.3 m/s)
Visibility: 1.99 miles (3.20 km)
Ceiling: 2000 feet AGL
Clouds: few clouds at 300 feet AGL
scattered clouds at 700 feet AGL
broken clouds at 2000 feet AGL
Weather: BLSN -SHSN  (blowing snow, light snow showers)

METAR text: RJCH 210100Z 29020KT 1400 R12/0400VP2000D -SHSN BLSN FEW002 SCT007 BKN015 M06/M09 Q1005
Conditions at: RJCH (HAKODATE AIRPORT, JP) observed 0100 UTC 21 January 2019
Temperature: -6.0°C (21°F)
Dewpoint: -9.0°C (16°F) [RH = 79%]
Pressure (altimeter): 29.68 inches Hg (1005.0 mb)
Winds: from the WNW (290 degrees) at 23 MPH (20 knots; 10.3 m/s)
Visibility: 0.87 miles (1.40 km)
Ceiling: 1500 feet AGL
Clouds: few clouds at 200 feet AGL
scattered clouds at 700 feet AGL
broken clouds at 1500 feet AGL
Weather: BLSN -SHSN  (blowing snow, light snow showers)

METAR text: RJCH 210004Z 31014KT 8000 -SHSN FEW002 SCT007 BKN025 M07/M09 Q1005 RMK 1ST002 4ST007 6CU025 A2968
Conditions at: RJCH (HAKODATE AIRPORT, JP) observed 0004 UTC 21 January 2019
Temperature: -7.0°C (19°F)
Dewpoint: -9.0°C (16°F) [RH = 86%]
Pressure (altimeter): 29.68 inches Hg (1005.0 mb)
Winds: from the NW (310 degrees) at 16 MPH (14 knots; 7.2 m/s)
Visibility: 5 miles ( 8 km)
Ceiling: 2500 feet AGL
Clouds: few clouds at 200 feet AGL
scattered clouds at 700 feet AGL
broken clouds at 2500 feet AGL
Weather: -SHSN  (light snow showers)

METAR text: RJCH 210000Z 31016KT 5000 -SHSN BLSN FEW002 SCT007 BKN025 M07/M09 Q1005
Conditions at: RJCH (HAKODATE AIRPORT, JP) observed 0000 UTC 21 January 2019
Temperature: -7.0°C (19°F)
Dewpoint: -9.0°C (16°F) [RH = 86%]
Pressure (altimeter): 29.68 inches Hg (1005.0 mb)
Winds: from the NW (310 degrees) at 18 MPH (16 knots; 8.2 m/s)
Visibility: 3 miles ( 5 km)
Ceiling: 2500 feet AGL
Clouds: few clouds at 200 feet AGL
scattered clouds at 700 feet AGL
broken clouds at 2500 feet AGL
Weather: -SHSN BLSN  (light snow showers, blowing snow)

METAR text: RJCH 202348Z 30019KT 1500 R12/0800VP2000U -SHSN BLSN FEW003 BKN007 BKN020 M06/M09 Q1005 RMK 2ST003 5ST007 7CU020 A2968
Conditions at: RJCH (HAKODATE AIRPORT, JP) observed 2348 UTC 20 January 2019
Temperature: -6.0°C (21°F)
Dewpoint: -9.0°C (16°F) [RH = 79%]
Pressure (altimeter): 29.68 inches Hg (1005.0 mb)
Winds: from the WNW (300 degrees) at 22 MPH (19 knots; 9.8 m/s)
Visibility: 0.93 miles (1.50 km)
Ceiling: 700 feet AGL
Clouds: few clouds at 300 feet AGL
broken clouds at 700 feet AGL
broken clouds at 2000 feet AGL
Weather: BLSN -SHSN  (blowing snow, light snow showers)

METAR text: RJCH 202344Z 30019G29KT 1000 R12/0600V2000U -SHSN BLSN SCT002 BKN006 BKN015 M07/M08 Q1004 RMK 3ST002 5ST006 7ST015 A2967
Conditions at: RJCH (HAKODATE AIRPORT, JP) observed 2344 UTC 20 January 2019
Temperature: -7.0°C (19°F)
Dewpoint: -8.0°C (18°F) [RH = 93%]
Pressure (altimeter): 29.65 inches Hg (1004.0 mb)
Winds: from the WNW (300 degrees) at 22 MPH (19 knots; 9.8 m/s)
gusting to 33 MPH (29 knots; 14.9 m/s)
Visibility: 0.62 miles (1.00 km)
Ceiling: 600 feet AGL
Clouds: scattered clouds at 200 feet AGL
broken clouds at 600 feet AGL
broken clouds at 1500 feet AGL
Weather: BLSN -SHSN  (blowing snow, light snow showers)

METAR text: RJCH 202341Z 30021G33KT 0500 R12/0400V1300U SHSN BLSN BKN005 BKN010 M07/M08 Q1004 RMK 5ST005 7ST010 A2967
Conditions at: RJCH (HAKODATE AIRPORT, JP) observed 2341 UTC 20 January 2019
Temperature: -7.0°C (19°F)
Dewpoint: -8.0°C (18°F) [RH = 93%]
Pressure (altimeter): 29.65 inches Hg (1004.0 mb)
Winds: from the WNW (300 degrees) at 24 MPH (21 knots; 10.8 m/s)
gusting to 38 MPH (33 knots; 17.0 m/s)
Visibility: 0.31 miles (0.50 km)
Ceiling: 500 feet AGL
Clouds: broken clouds at 500 feet AGL
broken clouds at 1000 feet AGL
Weather: BLSN SHSN  (blowing snow, snow showers)

METAR text: RJCH 202337Z 30023G33KT 0400 R12/0400V0800N SHSN BLSN BKN004 BKN008 M07/M08 Q1004 RMK 5ST004 7ST008 A2967
Conditions at: RJCH (HAKODATE AIRPORT, JP) observed 2337 UTC 20 January 2019
Temperature: -7.0°C (19°F)
Dewpoint: -8.0°C (18°F) [RH = 93%]
Pressure (altimeter): 29.65 inches Hg (1004.0 mb)
Winds: from the WNW (300 degrees) at 26 MPH (23 knots; 11.8 m/s)
gusting to 38 MPH (33 knots; 17.0 m/s)
Visibility: 0.25 miles (0.40 km)
Ceiling: 400 feet AGL
Clouds: broken clouds at 400 feet AGL
broken clouds at 800 feet AGL
Weather: SHSN BLSN  (snow showers, blowing snow)

METAR text: RJCH 202316Z 28020G31KT 0300 R12/0450V1500D SHSN BLSN VV003 M07/M08 Q1005 RMK A2968
Conditions at: RJCH (HAKODATE AIRPORT, JP) observed 2316 UTC 20 January 2019
Temperature: -7.0°C (19°F)
Dewpoint: -8.0°C (18°F) [RH = 93%]
Pressure (altimeter): 29.68 inches Hg (1005.0 mb)
Winds: from the W (280 degrees) at 23 MPH (20 knots; 10.3 m/s)
gusting to 36 MPH (31 knots; 15.9 m/s)
Visibility: 0.19 miles (0.31 km)
Ceiling: indefinite ceiling with vertical visibility of 300 feet AGL
Clouds: obscured sky
Weather: BLSN SHSN  (blowing snow, snow showers)

METAR text: RJCH 202314Z 28020G31KT 0500 R12/0700VP2000N SHSN BLSN VV004 M07/M08 Q1005 RMK A2968
Conditions at: RJCH (HAKODATE AIRPORT, JP) observed 2314 UTC 20 January 2019
Temperature: -7.0°C (19°F)
Dewpoint: -8.0°C (18°F) [RH = 93%]
Pressure (altimeter): 29.68 inches Hg (1005.0 mb)
Winds: from the W (280 degrees) at 23 MPH (20 knots; 10.3 m/s)
gusting to 36 MPH (31 knots; 15.9 m/s)
Visibility: 0.31 miles (0.50 km)
Ceiling: indefinite ceiling with vertical visibility of 400 feet AGL
Clouds: obscured sky
Weather: SHSN BLSN  (snow showers, blowing snow)

METAR text: RJCH 202310Z 27021KT 0700 R12/0700VP2000D SHSN BLSN VV006 M07/M09 Q1005 RMK A2968
Conditions at: RJCH (HAKODATE AIRPORT, JP) observed 2310 UTC 20 January 2019
Temperature: -7.0°C (19°F)
Dewpoint: -9.0°C (16°F) [RH = 86%]
Pressure (altimeter): 29.68 inches Hg (1005.0 mb)
Winds: from the W (270 degrees) at 24 MPH (21 knots; 10.8 m/s)
Visibility: 0.43 miles (0.69 km)
Ceiling: indefinite ceiling with vertical visibility of 600 feet AGL
Clouds: obscured sky
Weather: BLSN SHSN  (blowing snow, snow showers)

METAR text: RJCH 202304Z 28020KT 1400 R12/P2000N -SHSN BLSN SCT002 BKN007 BKN010 M06/M10 Q1005 RMK 3ST002 5ST007 7ST010 A2968
Conditions at: RJCH (HAKODATE AIRPORT, JP) observed 2304 UTC 20 January 2019
Temperature: -6.0°C (21°F)
Dewpoint: -10.0°C (14°F) [RH = 73%]
Pressure (altimeter): 29.68 inches Hg (1005.0 mb)
Winds: from the W (280 degrees) at 23 MPH (20 knots; 10.3 m/s)
Visibility: 0.87 miles (1.40 km)
Ceiling: 700 feet AGL
Clouds: scattered clouds at 200 feet AGL
broken clouds at 700 feet AGL
broken clouds at 1000 feet AGL
Weather: -SHSN BLSN  (light snow showers, blowing snow)

METAR text: RJCH 202300Z 31009G19KT 290V350 7000 -SHSN FEW002 SCT015 BKN030 M07/M10 Q1004
Conditions at: RJCH (HAKODATE AIRPORT, JP) observed 2300 UTC 20 January 2019
Temperature: -7.0°C (19°F)
Dewpoint: -10.0°C (14°F) [RH = 79%]
Pressure (altimeter): 29.65 inches Hg (1004.0 mb)
Winds: from the NW (310 degrees) at 10 MPH (9 knots; 4.6 m/s)
gusting to 22 MPH (19 knots; 9.8 m/s)
Visibility: 4 miles ( 7 km)
Ceiling: 3000 feet AGL
Clouds: few clouds at 200 feet AGL
scattered clouds at 1500 feet AGL
broken clouds at 3000 feet AGL
Weather: -SHSN  (light snow showers)

METAR text: RJCH 202200Z 30015KT 5000 R12/2000N -SHSN FEW003 SCT010 BKN020 M07/M09 Q1004
Conditions at: RJCH (HAKODATE AIRPORT, JP) observed 2200 UTC 20 January 2019
Temperature: -7.0°C (19°F)
Dewpoint: -9.0°C (16°F) [RH = 86%]
Pressure (altimeter): 29.65 inches Hg (1004.0 mb)
Winds: from the WNW (300 degrees) at 17 MPH (15 knots; 7.7 m/s)
Visibility: 3 miles ( 5 km)
Ceiling: 2000 feet AGL
Clouds: few clouds at 300 feet AGL
scattered clouds at 1000 feet AGL
broken clouds at 2000 feet AGL
Weather: -SHSN  (light snow showers)

METAR text: RJCH 202110Z 30012KT 9999 -SHSN FEW007 SCT015 BKN030 M07/M11 Q1003 RMK 1ST007 3ST015 5CU030 A2963
Conditions at: RJCH (HAKODATE AIRPORT, JP) observed 2110 UTC 20 January 2019
Temperature: -7.0°C (19°F)
Dewpoint: -11.0°C (12°F) [RH = 73%]
Pressure (altimeter): 29.62 inches Hg (1003.0 mb)
Winds: from the WNW (300 degrees) at 14 MPH (12 knots; 6.2 m/s)
Visibility: 6 or more miles (10+ km)
Ceiling: 3000 feet AGL
Clouds: few clouds at 700 feet AGL
scattered clouds at 1500 feet AGL
broken clouds at 3000 feet AGL
Weather: -SHSN  (light snow showers)

METAR text: RJCH 201128Z 29012KT 3100 -SHSN FEW005 SCT020 BKN025 M02/M05 Q0999 RMK 1ST005 3CU020 5CU025 A2951
Conditions at: RJCH (HAKODATE AIRPORT, JP) observed 1128 UTC 20 January 2019
Temperature: -2.0°C (28°F)
Dewpoint: -5.0°C (23°F) [RH = 80%]
Pressure (altimeter): 29.50 inches Hg (999.0 mb)
Winds: from the WNW (290 degrees) at 14 MPH (12 knots; 6.2 m/s)
Visibility: 1.93 miles (3.11 km)
Ceiling: 2500 feet AGL
Clouds: few clouds at 500 feet AGL
scattered clouds at 2000 feet AGL
broken clouds at 2500 feet AGL
Weather: -SHSN  (light snow showers)

METAR text: RJCH 201122Z 29009KT 4900 -SHSN FEW005 SCT025 BKN030 M02/M04 Q0999 RMK 1ST005 3CU025 5CU030 A2951
Conditions at: RJCH (HAKODATE AIRPORT, JP) observed 1122 UTC 20 January 2019
Temperature: -2.0°C (28°F)
Dewpoint: -4.0°C (25°F) [RH = 86%]
Pressure (altimeter): 29.50 inches Hg (999.0 mb)
Winds: from the WNW (290 degrees) at 10 MPH (9 knots; 4.6 m/s)
Visibility: 3 miles ( 5 km)
Ceiling: 3000 feet AGL
Clouds: few clouds at 500 feet AGL
scattered clouds at 2500 feet AGL
broken clouds at 3000 feet AGL
Weather: -SHSN  (light snow showers)

METAR text: RJCH 201106Z 28008KT 5000 -SHSN FEW005 SCT018 BKN020 M02/M04 Q0999 RMK 1ST005 3ST018 5CU020 A2951
Conditions at: RJCH (HAKODATE AIRPORT, JP) observed 1106 UTC 20 January 2019
Temperature: -2.0°C (28°F)
Dewpoint: -4.0°C (25°F) [RH = 86%]
Pressure (altimeter): 29.50 inches Hg (999.0 mb)
Winds: from the W (280 degrees) at 9 MPH (8 knots; 4.1 m/s)
Visibility: 3 miles ( 5 km)
Ceiling: 2000 feet AGL
Clouds: few clouds at 500 feet AGL
scattered clouds at 1800 feet AGL
broken clouds at 2000 feet AGL
Weather: -SHSN  (light snow showers)

METAR text: RJCH 201103Z 28008KT 3200 -SHSN FEW005 SCT015 BKN020 M02/M03 Q0999 RMK 1ST005 3ST015 5CU020 A2951
Conditions at: RJCH (HAKODATE AIRPORT, JP) observed 1103 UTC 20 January 2019
Temperature: -2.0°C (28°F)
Dewpoint: -3.0°C (27°F) [RH = 93%]
Pressure (altimeter): 29.50 inches Hg (999.0 mb)
Winds: from the W (280 degrees) at 9 MPH (8 knots; 4.1 m/s)
Visibility: 1.99 miles (3.20 km)
Ceiling: 2000 feet AGL
Clouds: few clouds at 500 feet AGL
scattered clouds at 1500 feet AGL
broken clouds at 2000 feet AGL
Weather: -SHSN  (light snow showers)

METAR text: RJCH 201100Z 28009KT 2400 -SHSN FEW005 SCT012 BKN020 M02/M04 Q0999
Conditions at: RJCH (HAKODATE AIRPORT, JP) observed 1100 UTC 20 January 2019
Temperature: -2.0°C (28°F)
Dewpoint: -4.0°C (25°F) [RH = 86%]
Pressure (altimeter): 29.50 inches Hg (999.0 mb)
Winds: from the W (280 degrees) at 10 MPH (9 knots; 4.6 m/s)
Visibility: 1.49 miles (2.40 km)
Ceiling: 2000 feet AGL
Clouds: few clouds at 500 feet AGL
scattered clouds at 1200 feet AGL
broken clouds at 2000 feet AGL
Weather: -SHSN  (light snow showers)

METAR text: RJCH 201041Z 29007KT 3100 -SHSN FEW005 SCT015 BKN050 M02/M04 Q0999 RMK 1ST005 3ST015 5CU050 A2951
Conditions at: RJCH (HAKODATE AIRPORT, JP) observed 1041 UTC 20 January 2019
Temperature: -2.0°C (28°F)
Dewpoint: -4.0°C (25°F) [RH = 86%]
Pressure (altimeter): 29.50 inches Hg (999.0 mb)
Winds: from the WNW (290 degrees) at 8 MPH (7 knots; 3.6 m/s)
Visibility: 1.93 miles (3.11 km)
Ceiling: 5000 feet AGL
Clouds: few clouds at 500 feet AGL
scattered clouds at 1500 feet AGL
broken clouds at 5000 feet AGL
Weather: -SHSN  (light snow showers)

METAR text: RJCH 201033Z 28005KT 4900 -SHSN FEW005 SCT015 BKN080 M02/M05 Q0999 RMK 1ST005 3ST015 5AC080 A2951
Conditions at: RJCH (HAKODATE AIRPORT, JP) observed 1033 UTC 20 January 2019
Temperature: -2.0°C (28°F)
Dewpoint: -5.0°C (23°F) [RH = 80%]
Pressure (altimeter): 29.50 inches Hg (999.0 mb)
Winds: from the W (280 degrees) at 6 MPH (5 knots; 2.6 m/s)
Visibility: 3 miles ( 5 km)
Ceiling: 8000 feet AGL
Clouds: few clouds at 500 feet AGL
scattered clouds at 1500 feet AGL
broken clouds at 8000 feet AGL
Weather: -SHSN  (light snow showers)

METAR text: RJCH 201000Z 30006KT 9999 FEW020 SCT100 BKN110 M02/M05 Q0999
Conditions at: RJCH (HAKODATE AIRPORT, JP) observed 1000 UTC 20 January 2019
Temperature: -2.0°C (28°F)
Dewpoint: -5.0°C (23°F) [RH = 80%]
Pressure (altimeter): 29.50 inches Hg (999.0 mb)
Winds: from the WNW (300 degrees) at 7 MPH (6 knots; 3.1 m/s)
Visibility: 6 or more miles (10+ km)
Ceiling: 11000 feet AGL
Clouds: few clouds at 2000 feet AGL
scattered clouds at 10000 feet AGL
broken clouds at 11000 feet AGL
Weather: no significant weather observed at this time

METAR text: RJCH 200900Z 31007KT 9999 FEW015 SCT030 BKN090 M01/M04 Q1000
Conditions at: RJCH (HAKODATE AIRPORT, JP) observed 0900 UTC 20 January 2019
Temperature: -1.0°C (30°F)
Dewpoint: -4.0°C (25°F) [RH = 80%]
Pressure (altimeter): 29.53 inches Hg (1000.0 mb)
Winds: from the NW (310 degrees) at 8 MPH (7 knots; 3.6 m/s)
Visibility: 6 or more miles (10+ km)
Ceiling: 9000 feet AGL
Clouds: few clouds at 1500 feet AGL
scattered clouds at 3000 feet AGL
broken clouds at 9000 feet AGL
Weather: no significant weather observed at this time

METAR text: RJCH 200800Z 31007KT 9999 FEW015 SCT020 BKN060 M01/M03 Q1000
Conditions at: RJCH (HAKODATE AIRPORT, JP) observed 0800 UTC 20 January 2019
Temperature: -1.0°C (30°F)
Dewpoint: -3.0°C (27°F) [RH = 86%]
Pressure (altimeter): 29.53 inches Hg (1000.0 mb)
Winds: from the NW (310 degrees) at 8 MPH (7 knots; 3.6 m/s)
Visibility: 6 or more miles (10+ km)
Ceiling: 6000 feet AGL
Clouds: few clouds at 1500 feet AGL
scattered clouds at 2000 feet AGL
broken clouds at 6000 feet AGL
Weather: no significant weather observed at this time

METAR text: RJCH 200700Z 32005KT 5000 -SHSN FEW004 SCT018 BKN035 M00/M01 Q1000
Conditions at: RJCH (HAKODATE AIRPORT, JP) observed 0700 UTC 20 January 2019
Temperature: 0.0°C (32°F)
Dewpoint: -1.0°C (30°F) [RH = 93%]
Pressure (altimeter): 29.53 inches Hg (1000.0 mb)
Winds: from the NW (320 degrees) at 6 MPH (5 knots; 2.6 m/s)
Visibility: 3 miles ( 5 km)
Ceiling: 3500 feet AGL
Clouds: few clouds at 400 feet AGL
scattered clouds at 1800 feet AGL
broken clouds at 3500 feet AGL
Weather: -SHSN  (light snow showers)

METAR text: RJCH 200629Z 33004KT 300V360 2400 R12/2000D -SHSN FEW004 SCT015 BKN025 M00/M01 Q1001 RMK 1ST004 3ST015 5CU025 A2956
Conditions at: RJCH (HAKODATE AIRPORT, JP) observed 0629 UTC 20 January 2019
Temperature: 0.0°C (32°F)
Dewpoint: -1.0°C (30°F) [RH = 93%]
Pressure (altimeter): 29.56 inches Hg (1001.0 mb)
Winds: from the NNW (330 degrees) at 5 MPH (4 knots; 2.1 m/s)
Visibility: 1.49 miles (2.40 km)
Ceiling: 2500 feet AGL
Clouds: few clouds at 400 feet AGL
scattered clouds at 1500 feet AGL
broken clouds at 2500 feet AGL
Weather: -SHSN  (light snow showers)

METAR text: RJCH 200624Z 33004KT 2300 -SHSNRA FEW004 SCT012 BKN025 M00/M01 Q1001 RMK 1ST004 3ST012 5CU025 A2956
Conditions at: RJCH (HAKODATE AIRPORT, JP) observed 0624 UTC 20 January 2019
Temperature: 0.0°C (32°F)
Dewpoint: -1.0°C (30°F) [RH = 93%]
Pressure (altimeter): 29.56 inches Hg (1001.0 mb)
Winds: from the NNW (330 degrees) at 5 MPH (4 knots; 2.1 m/s)
Visibility: 1.43 miles (2.30 km)
Ceiling: 2500 feet AGL
Clouds: few clouds at 400 feet AGL
scattered clouds at 1200 feet AGL
broken clouds at 2500 feet AGL
Weather: -SHSN -SHRA  (light snow showers, light rain showers)

METAR text: RJCH 200612Z 34003KT 3100 -SHSNRA FEW004 SCT015 BKN030 00/M01 Q1001 RMK 1ST004 3ST015 6CU030 A2956
Conditions at: RJCH (HAKODATE AIRPORT, JP) observed 0612 UTC 20 January 2019
Temperature: 0.0°C (32°F)
Dewpoint: -1.0°C (30°F) [RH = 93%]
Pressure (altimeter): 29.56 inches Hg (1001.0 mb)
Winds: from the NNW (340 degrees) at 3 MPH (3 knots; 1.5 m/s)
Visibility: 1.93 miles (3.11 km)
Ceiling: 3000 feet AGL
Clouds: few clouds at 400 feet AGL
scattered clouds at 1500 feet AGL
broken clouds at 3000 feet AGL
Weather: -SHSN -SHRA  (light snow showers, light rain showers)

METAR text: RJCH 200600Z 34003KT 4900 -SHSNRA FEW004 SCT015 BKN035 00/M01 Q1001
Conditions at: RJCH (HAKODATE AIRPORT, JP) observed 0600 UTC 20 January 2019
Temperature: 0.0°C (32°F)
Dewpoint: -1.0°C (30°F) [RH = 93%]
Pressure (altimeter): 29.56 inches Hg (1001.0 mb)
Winds: from the NNW (340 degrees) at 3 MPH (3 knots; 1.5 m/s)
Visibility: 3 miles ( 5 km)
Ceiling: 3500 feet AGL
Clouds: few clouds at 400 feet AGL
scattered clouds at 1500 feet AGL
broken clouds at 3500 feet AGL
Weather: -SHSN -SHRA  (light snow showers, light rain showers)

METAR text: RJCH 200545Z 34003KT 5000 -SHSNRA FEW004 SCT015 BKN035 00/M01 Q1001 RMK 1ST004 3ST015 5CU035 A2958
Conditions at: RJCH (HAKODATE AIRPORT, JP) observed 0545 UTC 20 January 2019
Temperature: 0.0°C (32°F)
Dewpoint: -1.0°C (30°F) [RH = 93%]
Pressure (altimeter): 29.56 inches Hg (1001.0 mb)
Winds: from the NNW (340 degrees) at 3 MPH (3 knots; 1.5 m/s)
Visibility: 3 miles ( 5 km)
Ceiling: 3500 feet AGL
Clouds: few clouds at 400 feet AGL
scattered clouds at 1500 feet AGL
broken clouds at 3500 feet AGL
Weather: -SHSN -SHRA  (light snow showers, light rain showers)

METAR text: RJCH 200500Z VRB01KT 4500 -SHSN FEW004 SCT015 BKN025 00/M02 Q1002
Conditions at: RJCH (HAKODATE AIRPORT, JP) observed 0500 UTC 20 January 2019
Temperature: 0.0°C (32°F)
Dewpoint: -2.0°C (28°F) [RH = 86%]
Pressure (altimeter): 29.59 inches Hg (1002.0 mb)
Winds: variable direction winds at 1 MPH (1 knots; 0.5 m/s)
Visibility: 2.80 miles (4.51 km)
Ceiling: 2500 feet AGL
Clouds: few clouds at 400 feet AGL
scattered clouds at 1500 feet AGL
broken clouds at 2500 feet AGL
Weather: -SHSN  (light snow showers)

METAR text: RJCH 200440Z VRB01KT 4900 -SHSN FEW004 SCT012 BKN035 00/M02 Q1002 RMK 1ST004 3ST012 5CU035 A2960
Conditions at: RJCH (HAKODATE AIRPORT, JP) observed 0440 UTC 20 January 2019
Temperature: 0.0°C (32°F)
Dewpoint: -2.0°C (28°F) [RH = 86%]
Pressure (altimeter): 29.59 inches Hg (1002.0 mb)
Winds: variable direction winds at 1 MPH (1 knots; 0.5 m/s)
Visibility: 3 miles ( 5 km)
Ceiling: 3500 feet AGL
Clouds: few clouds at 400 feet AGL
scattered clouds at 1200 feet AGL
broken clouds at 3500 feet AGL
Weather: -SHSN  (light snow showers)

METAR text: RJCH 200400Z 00000KT 5000 -SHSN FEW004 SCT010 BKN040 00/M02 Q1003
Conditions at: RJCH (HAKODATE AIRPORT, JP) observed 0400 UTC 20 January 2019
Temperature: 0.0°C (32°F)
Dewpoint: -2.0°C (28°F) [RH = 86%]
Pressure (altimeter): 29.62 inches Hg (1003.0 mb)
Winds: calm
Visibility: 3 miles ( 5 km)
Ceiling: 4000 feet AGL
Clouds: few clouds at 400 feet AGL
scattered clouds at 1000 feet AGL
broken clouds at 4000 feet AGL
Weather: -SHSN  (light snow showers)

METAR text: RJCH 200300Z 28003KT 230V320 9999 -SHSN FEW007 SCT015 BKN070 00/M03 Q1004
Conditions at: RJCH (HAKODATE AIRPORT, JP) observed 0300 UTC 20 January 2019
Temperature: 0.0°C (32°F)
Dewpoint: -3.0°C (27°F) [RH = 80%]
Pressure (altimeter): 29.65 inches Hg (1004.0 mb)
Winds: from the W (280 degrees) at 3 MPH (3 knots; 1.5 m/s)
Visibility: 6 or more miles (10+ km)
Ceiling: 7000 feet AGL
Clouds: few clouds at 700 feet AGL
scattered clouds at 1500 feet AGL
broken clouds at 7000 feet AGL
Weather: -SHSN  (light snow showers)

METAR text: RJCH 200200Z 29002KT 9999 VCSH FEW010 SCT030 BKN060 M00/M05 Q1005
Conditions at: RJCH (HAKODATE AIRPORT, JP) observed 0200 UTC 20 January 2019
Temperature: 0.0°C (32°F)
Dewpoint: -5.0°C (23°F) [RH = 69%]
Pressure (altimeter): 29.68 inches Hg (1005.0 mb)
Winds: from the WNW (290 degrees) at 2 MPH (2 knots; 1.0 m/s)
Visibility: 6 or more miles (10+ km)
Ceiling: 6000 feet AGL
Clouds: few clouds at 1000 feet AGL
scattered clouds at 3000 feet AGL
broken clouds at 6000 feet AGL
Weather: VCSH  (showers in vicinity)

METAR text: RJCH 200100Z 02003KT 330V040 9999 VCSH FEW015 SCT040 BKN060 M00/M05 Q1007
Conditions at: RJCH (HAKODATE AIRPORT, JP) observed 0100 UTC 20 January 2019
Temperature: 0.0°C (32°F)
Dewpoint: -5.0°C (23°F) [RH = 69%]
Pressure (altimeter): 29.73 inches Hg (1007.0 mb)
Winds: from the NNE (20 degrees) at 3 MPH (3 knots; 1.5 m/s)
Visibility: 6 or more miles (10+ km)
Ceiling: 6000 feet AGL
Clouds: few clouds at 1500 feet AGL
scattered clouds at 4000 feet AGL
broken clouds at 6000 feet AGL
Weather: VCSH  (showers in vicinity)

METAR text: RJCH 200000Z 02004KT 9999 VCSH FEW010 SCT030 BKN070 M02/M06 Q1008
Conditions at: RJCH (HAKODATE AIRPORT, JP) observed 0000 UTC 20 January 2019
Temperature: -2.0°C (28°F)
Dewpoint: -6.0°C (21°F) [RH = 74%]
Pressure (altimeter): 29.76 inches Hg (1008.0 mb)
Winds: from the NNE (20 degrees) at 5 MPH (4 knots; 2.1 m/s)
Visibility: 6 or more miles (10+ km)
Ceiling: 7000 feet AGL
Clouds: few clouds at 1000 feet AGL
scattered clouds at 3000 feet AGL
broken clouds at 7000 feet AGL
Weather: VCSH  (showers in vicinity)

METAR text: RJCH 192300Z 03005KT 9999 FEW010 SCT030 BKN040 M03/M06 Q1008
Conditions at: RJCH (HAKODATE AIRPORT, JP) observed 2300 UTC 19 January 2019
Temperature: -3.0°C (27°F)
Dewpoint: -6.0°C (21°F) [RH = 80%]
Pressure (altimeter): 29.76 inches Hg (1008.0 mb)
Winds: from the NNE (30 degrees) at 6 MPH (5 knots; 2.6 m/s)
Visibility: 6 or more miles (10+ km)
Ceiling: 4000 feet AGL
Clouds: few clouds at 1000 feet AGL
scattered clouds at 3000 feet AGL
broken clouds at 4000 feet AGL
Weather: no significant weather observed at this time

METAR text: RJCH 192200Z 01007KT 9999 FEW015 SCT030 BKN040 M04/M06 Q1009
Conditions at: RJCH (HAKODATE AIRPORT, JP) observed 2200 UTC 19 January 2019
Temperature: -4.0°C (25°F)
Dewpoint: -6.0°C (21°F) [RH = 86%]
Pressure (altimeter): 29.79 inches Hg (1009.0 mb)
Winds: from the N (10 degrees) at 8 MPH (7 knots; 3.6 m/s)
Visibility: 6 or more miles (10+ km)
Ceiling: 4000 feet AGL
Clouds: few clouds at 1500 feet AGL
scattered clouds at 3000 feet AGL
broken clouds at 4000 feet AGL
Weather: no significant weather observed at this time

METAR text: RJCH 192110Z 03006KT 9999 FEW020 SCT040 BKN140 M04/M06 Q1009 RMK 1CU020 3CU040 5AC140 A2982
Conditions at: RJCH (HAKODATE AIRPORT, JP) observed 2110 UTC 19 January 2019
Temperature: -4.0°C (25°F)
Dewpoint: -6.0°C (21°F) [RH = 86%]
Pressure (altimeter): 29.79 inches Hg (1009.0 mb)
Winds: from the NNE (30 degrees) at 7 MPH (6 knots; 3.1 m/s)
Visibility: 6 or more miles (10+ km)
Ceiling: 14000 feet AGL
Clouds: few clouds at 2000 feet AGL
scattered clouds at 4000 feet AGL
broken clouds at 14000 feet AGL
Weather: no significant weather observed at this time

Forecast for: AMD
Text: TAF AMD RJCH 210244Z 2102/2206 29018KT 9999 FEW006 BKN015
Forecast period: 0200 to 1500 UTC 21 January 2019
Forecast type: FROM: standard forecast or significant change
Winds: from the WNW (290 degrees) at 21 MPH (18 knots; 9.3 m/s)
Visibility: 6 or more miles 10+ km)
Ceiling: 1500 feet AGL
Clouds: few clouds at 600 feet AGL
broken clouds at 1500 feet AGL
Weather: no significant weather forecast for this period
Text: TEMPO 2102/2106 29022G32KT 0700 SHSN BLSN VV005
Forecast period: 0200 to 0600 UTC 21 January 2019
Forecast type: TEMPORARY: The following changes expected for less than half the time period
Winds: from the WNW (290 degrees) at 25 MPH (22 knots; 11.3 m/s)
gusting to 37 MPH (32 knots; 16.5 m/s)
Visibility: 0.43 miles (0.69 km)
Ceiling: indefinite ceiling with vertical visibility of 500 feet AGL
Clouds: obscured sky
Weather: SHSN BLSN  (snow showers, blowing snow)
Text: TEMPO 2106/2109 29020G30KT 1500 -SHSN BLSN FEW003 BKN006
Forecast period: 0600 to 0900 UTC 21 January 2019
Forecast type: TEMPORARY: The following changes expected for less than half the time period
Winds: from the WNW (290 degrees) at 23 MPH (20 knots; 10.3 m/s)
gusting to 34 MPH (30 knots; 15.4 m/s)
Visibility: 0.93 miles (1.50 km)
Ceiling: 600 feet AGL
Clouds: few clouds at 300 feet AGL
broken clouds at 600 feet AGL
Weather: -SHSN BLSN  (light snow showers, blowing snow)
Text: TEMPO 2109/2112 3000 -SHSN
Forecast period: 0900 to 1200 UTC 21 January 2019
Forecast type: TEMPORARY: The following changes expected for less than half the time period
Visibility: 1.86 miles (2.99 km)
Ceiling: unknown
Clouds: missing
Weather: -SHSN  (light snow showers)
Text: BECMG 2115/2118 30008KT
Forecast period: 1500 UTC 21 January 2019 to 0600 UTC 22 January 2019
Forecast type: BECOMING: Conditions expected to become as follows by 1800 UTC 21 January 2019
Winds: from the WNW (300 degrees) at 9 MPH (8 knots; 4.1 m/s)
Visibility: 6 or more miles 10+ km)
Ceiling: 1500 feet AGL
Clouds: few clouds at 600 feet AGL
broken clouds at 1500 feet AGL
Weather: no significant weather forecast for this period